Time;durP1;ratioP1;P1;durP2;ratioP2;P2;SDS_P1;SDS_P2;PMS_P1;PMS_P2;Temp;Humidity;BMP_temperature;BMP_pressure;BME280_temperature;BME280_humidity;BME280_pressure;Samples;Min_cycle;Max_cycle;Signal;HPM_P1;HPM_P2
2021/07/17 00:02:22;;;;;;;;;;;;;;;23.64;88.02;100046.35;1699143;82;20448;-78
2021/07/17 00:04:48;;;;;;;;;;;;;;;23.73;87.76;100045.95;1708378;82;20995;-85
2021/07/17 00:07:13;;;;;;;;;;;;;;;23.71;87.71;100050.25;1708351;82;20139;-78
2021/07/17 00:09:39;;;;;;;;;;;;;;;23.73;87.77;100048.66;1705452;82;21064;-78
2021/07/17 00:12:05;;;;;;;;;;;;;;;23.76;87.92;100052.20;1707644;82;20452;-81
2021/07/17 00:14:30;;;;;;;;;;;;;;;23.85;87.67;100052.11;1708516;82;20284;-82
2021/07/17 00:16:56;;;;;;;;;;;;;;;23.83;87.59;100048.80;1704917;82;20128;-78
2021/07/17 00:19:22;;;;;;;;;;;;;;;23.85;87.27;100060.20;1714401;82;20440;-81
2021/07/17 00:21:47;;;;;;;;;;;;;;;23.83;87.32;100052.84;1713692;82;21234;-81
2021/07/17 00:24:13;;;;;;;;;;;;;;;23.76;87.67;100052.20;1696507;82;20325;-84
2021/07/17 00:26:39;;;;;;;;;;;;;;;23.79;87.55;100051.72;1706417;82;20228;-88
2021/07/17 00:29:04;;;;;;;;;;;;;;;23.70;88.11;100053.19;1708267;82;20374;-78
2021/07/17 00:31:30;;;;;;;;;;;;;;;23.71;88.22;100058.84;1712109;83;20143;-79
2021/07/17 00:33:57;;;;;;;;;;;;;;;23.73;88.07;100056.74;1718719;82;21071;-81
2021/07/17 00:36:23;;;;;;;;;;;;;;;23.72;88.58;100059.14;1716115;82;20172;-78
2021/07/17 00:38:48;;;;;;;;;;;;;;;23.76;87.72;100053.56;1716863;82;20166;-81
2021/07/17 00:41:14;;;;;;;;;;;;;;;23.76;87.64;100056.25;1710883;82;20141;-77
2021/07/17 00:43:39;;;;;;;;;;;;;;;23.75;87.87;100057.30;1707809;82;20158;-82
2021/07/17 00:46:05;;;;;;;;;;;;;;;23.70;87.88;100055.89;1702418;82;22026;-78
2021/07/17 00:48:31;;;;;;;;;;;;;;;23.74;87.30;100056.50;1699357;83;20148;-77
2021/07/17 00:50:56;;;;;;;;;;;;;;;23.73;87.39;100059.44;1710335;82;20457;-77
2021/07/17 00:53:22;;;;;;;;;;;;;;;23.69;87.27;100059.09;1712804;82;20150;-82
2021/07/17 00:55:49;;;;;;;;;;;;;;;23.70;87.16;100059.94;1711802;82;20276;-83
2021/07/17 00:58:16;;;;;;;;;;;;;;;23.74;86.48;100065.09;1717111;83;21147;-76
2021/07/17 01:00:42;;;;;;;;;;;;;;;23.73;86.26;100059.44;1712225;82;20170;-81
2021/07/17 01:03:07;;;;;;;;;;;;;;;23.64;86.01;100055.78;1709767;82;20510;-77
2021/07/17 01:05:33;;;;;;;;;;;;;;;23.64;85.78;100051.73;1707206;82;20161;-76
2021/07/17 01:07:59;;;;;;;;;;;;;;;23.61;85.54;100052.77;1706160;83;20273;-76
2021/07/17 01:10:25;;;;;;;;;;;;;;;23.57;86.04;100047.57;1693782;82;21869;-77
2021/07/17 01:12:51;;;;;;;;;;;;;;;23.54;86.50;100055.64;1714977;82;20252;-77
2021/07/17 01:15:17;;;;;;;;;;;;;;;23.52;87.16;100059.62;1718624;82;20163;-78
2021/07/17 01:17:42;;;;;;;;;;;;;;;23.34;88.41;100060.66;1716906;82;20152;-77
2021/07/17 01:20:10;;;;;;;;;;;;;;;23.28;89.12;100061.93;1708253;82;20126;-83
2021/07/17 01:22:37;;;;;;;;;;;;;;;23.29;89.09;100056.03;1714700;82;21778;-85
2021/07/17 01:25:18;;;;;;;;;;;;;;;23.29;89.00;100059.53;1712542;82;20193;-78
2021/07/17 01:27:44;;;;;;;;;;;;;;;23.21;89.30;100072.56;1715235;82;20183;-83
2021/07/17 01:30:11;;;;;;;;;;;;;;;23.07;89.94;100059.89;1712855;82;20121;-80
2021/07/17 01:32:37;;;;;;;;;;;;;;;22.94;91.02;100067.20;1712800;82;20335;-86
2021/07/17 01:35:03;;;;;;;;;;;;;;;22.91;91.24;100062.29;1706249;82;21104;-80
2021/07/17 01:37:28;;;;;;;;;;;;;;;22.86;91.37;100055.47;1716169;82;20192;-80
2021/07/17 01:39:54;;;;;;;;;;;;;;;22.82;91.89;100047.58;1712301;82;20130;-79
2021/07/17 01:42:19;;;;;;;;;;;;;;;22.90;91.15;100036.95;1712866;82;20135;-78
2021/07/17 01:44:45;;;;;;;;;;;;;;;22.80;91.76;100029.51;1706230;82;20127;-82
2021/07/17 01:47:14;;;;;;;;;;;;;;;22.80;91.77;100028.16;1706514;82;21061;-91
2021/07/17 01:49:39;;;;;;;;;;;;;;;22.82;91.49;100023.34;1701608;82;20177;-84
2021/07/17 01:52:06;;;;;;;;;;;;;;;22.74;92.12;100031.27;1707425;82;20176;-78
2021/07/17 01:54:33;;;;;;;;;;;;;;;22.64;92.94;100024.88;1703614;82;20445;-78
2021/07/17 01:57:00;;;;;;;;;;;;;;;22.67;92.81;100014.97;1699503;82;20599;-84
2021/07/17 01:59:26;;;;;;;;;;;;;;;22.68;92.81;100003.16;1708350;82;22062;-81
2021/07/17 02:01:51;;;;;;;;;;;;;;;22.70;92.49;99997.00;1707400;82;20404;-78
2021/07/17 02:04:17;;;;;;;;;;;;;;;22.67;92.58;99990.23;1707873;82;20160;-88
2021/07/17 02:06:42;;;;;;;;;;;;;;;22.67;92.96;99988.05;1706384;82;20181;-78
2021/07/17 02:09:08;;;;;;;;;;;;;;;22.72;93.02;99981.44;1706715;82;20166;-82
2021/07/17 02:11:33;;;;;;;;;;;;;;;22.75;92.40;99978.27;1704061;82;21968;-88
2021/07/17 02:13:59;;;;;;;;;;;;;;;22.79;92.16;99976.70;1710435;82;20578;-78
2021/07/17 02:16:24;;;;;;;;;;;;;;;22.81;91.83;99985.37;1707195;82;20159;-78
2021/07/17 02:18:50;;;;;;;;;;;;;;;22.80;91.98;99991.81;1713888;82;20449;-81
2021/07/17 02:21:15;;;;;;;;;;;;;;;22.84;92.42;99997.52;1710984;82;20158;-78
2021/07/17 02:23:41;;;;;;;;;;;;;;;22.85;92.40;100004.02;1711028;82;21086;-78
2021/07/17 02:26:06;;;;;;;;;;;;;;;22.87;92.29;100005.95;1718178;82;20145;-78
2021/07/17 02:28:32;;;;;;;;;;;;;;;22.87;92.15;100000.57;1712567;82;20106;-78
2021/07/17 02:30:58;;;;;;;;;;;;;;;22.77;93.53;100007.10;1709953;82;20188;-77
2021/07/17 02:33:23;;;;;;;;;;;;;;;22.81;93.38;100020.89;1708835;82;20144;-82
2021/07/17 02:35:49;;;;;;;;;;;;;;;22.45;95.09;100020.19;1715403;83;22307;-80
2021/07/17 02:38:16;;;;;;;;;;;;;;;22.33;95.55;100009.48;1717034;82;20126;-79
2021/07/17 02:40:41;;;;;;;;;;;;;;;22.39;95.72;100009.87;1713231;83;20457;-77
2021/07/17 02:43:07;;;;;;;;;;;;;;;22.40;95.55;100014.18;1708942;82;20122;-77
2021/07/17 02:45:32;;;;;;;;;;;;;;;22.36;95.64;100007.66;1707233;82;21372;-77
2021/07/17 02:47:58;;;;;;;;;;;;;;;22.40;95.41;100006.11;1707153;82;21073;-78
2021/07/17 02:50:24;;;;;;;;;;;;;;;22.44;95.10;100001.09;1713553;82;20141;-78
2021/07/17 02:52:49;;;;;;;;;;;;;;;;;;1715799;82;20333;-82
2021/07/17 02:55:15;;;;;;;;;;;;;;;22.55;94.71;99990.27;1707592;82;20153;-82
2021/07/17 02:57:41;;;;;;;;;;;;;;;22.59;94.45;99987.40;1718050;82;20198;-77
2021/07/17 03:00:07;;;;;;;;;;;;;;;22.62;94.44;99996.04;1707581;82;21165;-77
2021/07/17 03:02:33;;;;;;;;;;;;;;;22.62;94.44;99998.73;1712781;82;20425;-77
2021/07/17 03:04:59;;;;;;;;;;;;;;;22.53;95.04;100003.16;1717643;82;20142;-78
2021/07/17 03:07:24;;;;;;;;;;;;;;;22.55;94.91;100009.11;1710431;82;20494;-78
2021/07/17 03:09:50;;;;;;;;;;;;;;;22.48;95.40;100005.76;1717090;82;20465;-86
2021/07/17 03:12:15;;;;;;;;;;;;;;;22.51;96.00;100007.97;1708394;82;21284;-78
2021/07/17 03:14:41;;;;;;;;;;;;;;;22.56;95.50;100013.45;1709299;82;20209;-78
2021/07/17 03:17:06;;;;;;;;;;;;;;;22.53;95.80;100013.11;1706205;82;20195;-82
2021/07/17 03:19:32;;;;;;;;;;;;;;;22.47;95.71;100024.30;1709001;82;20146;-84
2021/07/17 03:21:57;;;;;;;;;;;;;;;22.40;95.38;100027.13;1706866;82;20772;-82
2021/07/17 03:24:23;;;;;;;;;;;;;;;22.39;95.64;100030.05;1714097;83;21127;-77
2021/07/17 03:26:48;;;;;;;;;;;;;;;22.39;95.27;100038.13;1714745;82;20297;-76
2021/07/17 03:29:14;;;;;;;;;;;;;;;22.33;95.57;100023.73;1705973;82;20146;-88
2021/07/17 03:31:39;;;;;;;;;;;;;;;22.27;96.08;100023.84;1705527;82;20540;-78
2021/07/17 03:34:05;;;;;;;;;;;;;;;22.20;96.39;100027.48;1713402;82;20131;-81
2021/07/17 03:36:31;;;;;;;;;;;;;;;22.15;96.79;100028.69;1709290;82;21083;-78
2021/07/17 03:38:56;;;;;;;;;;;;;;;22.12;96.90;100032.39;1718440;82;20165;-81
2021/07/17 03:41:22;;;;;;;;;;;;;;;22.05;97.40;100031.98;1705632;82;20138;-81
2021/07/17 03:43:47;;;;;;;;;;;;;;;21.95;98.25;100032.28;1708926;82;20181;-79
2021/07/17 03:46:13;;;;;;;;;;;;;;;21.99;98.27;100036.14;1705722;82;20759;-82
2021/07/17 03:48:38;;;;;;;;;;;;;;;21.92;98.83;100042.97;1709696;82;21158;-79
2021/07/17 03:51:05;;;;;;;;;;;;;;;21.91;98.89;100051.27;1703207;82;20161;-79
2021/07/17 03:53:30;;;;;;;;;;;;;;;21.90;98.90;100049.65;1700673;82;20430;-79
2021/07/17 03:55:56;;;;;;;;;;;;;;;21.88;98.97;100039.94;1706918;82;20130;-78
2021/07/17 03:58:22;;;;;;;;;;;;;;;21.81;99.18;100036.56;1703995;82;20131;-81
2021/07/17 04:00:48;;;;;;;;;;;;;;;21.83;99.50;100034.95;1702187;82;21053;-85
2021/07/17 04:03:13;;;;;;;;;;;;;;;21.79;99.56;100031.92;1706527;82;20197;-77
2021/07/17 04:05:39;;;;;;;;;;;;;;;21.74;100.00;100029.66;1701648;82;20161;-78
2021/07/17 04:08:05;;;;;;;;;;;;;;;21.82;100.00;100031.99;1689135;83;20141;-78
2021/07/17 04:10:31;;;;;;;;;;;;;;;21.79;99.70;100017.67;1706653;82;20286;-78
2021/07/17 04:12:57;;;;;;;;;;;;;;;21.86;99.58;100023.23;1708091;82;21097;-81
2021/07/17 04:15:22;;;;;;;;;;;;;;;21.95;99.03;100015.61;1708753;82;20198;-79
2021/07/17 04:17:48;;;;;;;;;;;;;;;22.02;98.66;100014.97;1699222;82;20145;-79
2021/07/17 04:20:13;;;;;;;;;;;;;;;22.08;98.32;100019.95;1696650;83;20175;-85
2021/07/17 04:22:39;;;;;;;;;;;;;;;22.07;98.15;100018.84;1707959;82;20142;-80
2021/07/17 04:25:05;;;;;;;;;;;;;;;22.13;97.87;100020.05;1713058;82;21076;-79
2021/07/17 04:27:31;;;;;;;;;;;;;;;22.12;97.89;100015.72;1705460;83;20178;-77
2021/07/17 04:29:56;;;;;;;;;;;;;;;22.19;97.86;100020.45;1714030;81;20212;-77
2021/07/17 04:32:22;;;;;;;;;;;;;;;22.37;96.87;100016.00;1713312;82;20216;-79
2021/07/17 04:34:47;;;;;;;;;;;;;;;22.40;96.36;100018.22;1697774;82;20220;-80
2021/07/17 04:37:14;;;;;;;;;;;;;;;;;;1714607;82;21238;-86
2021/07/17 04:39:39;;;;;;;;;;;;;;;22.51;95.27;100016.55;1702135;82;20143;-78
2021/07/17 04:42:05;;;;;;;;;;;;;;;22.56;94.75;100013.98;1715098;83;20169;-78
2021/07/17 04:44:30;;;;;;;;;;;;;;;22.65;94.11;100021.13;1713918;82;20467;-77
2021/07/17 04:46:56;;;;;;;;;;;;;;;22.69;93.80;100022.30;1716125;83;20158;-77
2021/07/17 04:49:21;;;;;;;;;;;;;;;22.75;93.21;100022.69;1714731;82;21196;-77
2021/07/17 04:51:47;;;;;;;;;;;;;;;22.77;93.04;100021.91;1712489;82;20565;-78
2021/07/17 04:54:12;;;;;;;;;;;;;;;22.81;93.13;100016.85;1718543;82;20150;-85
2021/07/17 04:56:38;;;;;;;;;;;;;;;22.92;93.04;100012.77;1694035;83;20443;-79
2021/07/17 04:59:03;;;;;;;;;;;;;;;22.95;92.83;100021.72;1710515;82;20255;-80
2021/07/17 05:01:29;;;;;;;;;;;;;;;23.06;92.13;100019.22;1714835;82;21246;-80
2021/07/17 05:03:55;;;;;;;;;;;;;;;23.08;91.81;100021.13;1697064;82;20377;-77
2021/07/17 05:06:20;;;;;;;;;;;;;;;23.25;91.46;100030.62;1709981;82;20159;-77
2021/07/17 05:08:46;;;;;;;;;;;;;;;23.36;90.68;100037.00;1699842;82;20603;-81
2021/07/17 05:11:11;;;;;;;;;;;;;;;23.29;90.12;100037.97;1714050;82;20180;-78
2021/07/17 05:13:37;;;;;;;;;;;;;;;23.33;89.97;100034.80;1701561;82;21094;-84
2021/07/17 05:16:03;;;;;;;;;;;;;;;23.46;89.81;100033.95;1706791;82;20170;-81
2021/07/17 05:18:28;;;;;;;;;;;;;;;23.57;89.44;100034.94;1708079;82;20183;-78
2021/07/17 05:20:54;;;;;;;;;;;;;;;23.68;89.41;100036.42;1713974;82;20344;-77
2021/07/17 05:23:20;;;;;;;;;;;;;;;23.78;89.16;100041.98;1705623;82;20146;-78
2021/07/17 05:25:46;;;;;;;;;;;;;;;23.86;88.67;100046.98;1715171;82;21084;-78
2021/07/17 05:28:12;;;;;;;;;;;;;;;23.99;87.80;100049.34;1706861;82;20111;-81
2021/07/17 05:30:37;;;;;;;;;;;;;;;23.96;87.06;100043.10;1719339;82;20219;-87
2021/07/17 05:33:03;;;;;;;;;;;;;;;24.04;86.76;100041.05;1706228;82;20471;-88
2021/07/17 05:35:29;;;;;;;;;;;;;;;24.14;86.67;100042.53;1705075;82;20182;-78
2021/07/17 05:37:58;;;;;;;;;;;;;;;24.25;86.68;100038.89;1717599;83;21143;-78
2021/07/17 05:40:24;;;;;;;;;;;;;;;24.26;85.30;100029.74;1704345;82;20167;-80
2021/07/17 05:42:49;;;;;;;;;;;;;;;24.35;85.23;100033.64;1708481;82;20277;-78
2021/07/17 05:45:15;;;;;;;;;;;;;;;24.53;85.63;100034.39;1702463;82;20457;-80
2021/07/17 05:47:41;;;;;;;;;;;;;;;24.59;84.52;100035.30;1707927;82;20187;-78
2021/07/17 05:50:07;;;;;;;;;;;;;;;24.59;84.13;100033.41;1707508;82;21082;-79
2021/07/17 05:52:32;;;;;;;;;;;;;;;24.58;83.58;100026.41;1718150;83;20283;-79
2021/07/17 05:54:58;;;;;;;;;;;;;;;24.68;83.71;100031.90;1711821;83;21312;-82
2021/07/17 05:57:23;;;;;;;;;;;;;;;24.67;82.99;100032.98;1700765;82;20142;-81
2021/07/17 05:59:49;;;;;;;;;;;;;;;24.60;83.23;100032.35;1709722;82;20138;-80
2021/07/17 06:02:14;;;;;;;;;;;;;;;24.59;83.63;100029.36;1710596;82;20785;-78
2021/07/17 06:04:40;;;;;;;;;;;;;;;24.66;83.61;100034.05;1714582;82;20154;-78
2021/07/17 06:07:05;;;;;;;;;;;;;;;24.58;83.55;100031.80;1713655;82;20140;-79
2021/07/17 06:09:31;;;;;;;;;;;;;;;24.49;84.18;100036.78;1712614;82;20142;-78
2021/07/17 06:11:56;;;;;;;;;;;;;;;24.56;83.77;100040.63;1713733;82;20130;-78
2021/07/17 06:14:22;;;;;;;;;;;;;;;24.60;83.94;100040.45;1707595;82;21854;-78
2021/07/17 06:16:48;;;;;;;;;;;;;;;24.51;84.52;100041.93;1711107;82;20232;-81
2021/07/17 06:19:13;;;;;;;;;;;;;;;24.62;83.98;100047.76;1717352;82;20362;-79
2021/07/17 06:21:40;;;;;;;;;;;;;;;24.51;84.08;100041.93;1706697;82;20142;-80
2021/07/17 06:24:06;;;;;;;;;;;;;;;24.56;83.83;100041.98;1715439;83;20158;-78
2021/07/17 06:26:31;;;;;;;;;;;;;;;24.54;84.06;100050.87;1712990;82;21087;-78
2021/07/17 06:28:57;;;;;;;;;;;;;;;24.56;83.72;100051.44;1715897;82;20241;-78
2021/07/17 06:31:23;;;;;;;;;;;;;;;24.60;83.86;100058.55;1714512;82;20141;-80
2021/07/17 06:33:48;;;;;;;;;;;;;;;24.61;84.12;100052.90;1707619;82;21453;-80
2021/07/17 06:36:16;;;;;;;;;;;;;;;24.76;83.78;100048.73;1704254;82;20130;-81
2021/07/17 06:38:43;;;;;;;;;;;;;;;24.67;83.59;100054.59;1705777;82;21153;-81
2021/07/17 06:41:09;;;;;;;;;;;;;;;24.72;83.43;100049.23;1706429;82;20168;-78
2021/07/17 06:43:35;;;;;;;;;;;;;;;24.81;83.40;100050.97;1712590;82;20201;-79
2021/07/17 06:46:01;;;;;;;;;;;;;;;24.76;83.57;100048.73;1704501;83;20197;-79
2021/07/17 06:48:27;;;;;;;;;;;;;;;24.93;83.05;100054.05;1717079;83;20223;-78
2021/07/17 06:50:52;;;;;;;;;;;;;;;25.00;82.78;100058.19;1717525;82;21072;-85
2021/07/17 06:53:18;;;;;;;;;;;;;;;25.09;82.57;100060.72;1701658;82;20170;-80
2021/07/17 06:55:44;;;;;;;;;;;;;;;25.19;82.16;100056.48;1703246;82;20159;-84
2021/07/17 06:58:09;;;;;;;;;;;;;;;25.26;81.84;100053.85;1709182;82;20594;-80
2021/07/17 07:00:35;;;;;;;;;;;;;;;25.34;81.56;100051.77;1700026;82;20249;-84
2021/07/17 07:03:02;;;;;;;;;;;;;;;25.43;81.43;100049.71;1700800;82;21352;-79
2021/07/17 07:05:28;;;;;;;;;;;;;;;25.43;81.00;100052.41;1713571;82;20179;-86
2021/07/17 07:07:54;;;;;;;;;;;;;;;25.49;80.76;100049.75;1708476;82;20541;-80
2021/07/17 07:10:19;;;;;;;;;;;;;;;25.42;80.68;100053.48;1704549;82;20187;-78
2021/07/17 07:12:45;;;;;;;;;;;;;;;25.48;80.44;100055.70;1712323;82;20765;-80
2021/07/17 07:15:10;;;;;;;;;;;;;;;25.55;80.23;100049.52;1705255;82;21904;-79
2021/07/17 07:17:37;;;;;;;;;;;;;;;25.57;80.56;100050.61;1709998;82;20132;-77
2021/07/17 07:20:04;;;;;;;;;;;;;;;25.63;80.36;100049.58;1711494;82;20194;-77
2021/07/17 07:22:29;;;;;;;;;;;;;;;25.63;79.66;100054.98;1706231;82;20156;-79
2021/07/17 07:24:55;;;;;;;;;;;;;;;25.71;79.57;100055.85;1710472;82;20166;-77
2021/07/17 07:27:20;;;;;;;;;;;;;;;25.76;79.39;100072.14;1712137;82;21033;-78
2021/07/17 07:29:46;;;;;;;;;;;;;;;25.77;78.91;100061.58;1714006;82;20254;-77
2021/07/17 07:32:12;;;;;;;;;;;;;;;25.73;79.12;100064.55;1708087;82;20096;-77
2021/07/17 07:34:38;;;;;;;;;;;;;;;25.86;79.34;100066.53;1716015;82;20161;-80
2021/07/17 07:37:03;;;;;;;;;;;;;;;25.85;79.21;100071.66;1705515;82;20188;-77
2021/07/17 07:39:29;;;;;;;;;;;;;;;25.91;79.08;100066.55;1698747;82;21245;-80
2021/07/17 07:41:54;;;;;;;;;;;;;;;;;;1705497;82;20473;-86
2021/07/17 07:44:19;;;;;;;;;;;;;;;25.93;78.11;100072.52;1715325;83;20194;-79
2021/07/17 07:46:45;;;;;;;;;;;;;;;26.08;78.28;100078.05;1692679;82;20388;-81
2021/07/17 07:49:12;;;;;;;;;;;;;;;26.10;77.99;100079.98;1702432;82;20149;-88
2021/07/17 07:51:37;;;;;;;;;;;;;;;26.18;77.64;100085.45;1699777;83;21095;-84
2021/07/17 07:54:03;;;;;;;;;;;;;;;26.17;77.41;100088.41;1707016;83;20632;-80
2021/07/17 07:56:28;;;;;;;;;;;;;;;26.29;77.43;100091.73;1702543;83;20121;-81
2021/07/17 07:58:54;;;;;;;;;;;;;;;26.26;77.56;100086.84;1690433;82;21287;-80
2021/07/17 08:01:19;;;;;;;;;;;;;;;26.34;76.84;100091.75;1700847;82;20149;-81
2021/07/17 08:03:45;;;;;;;;;;;;;;;26.36;77.17;100092.30;1693835;83;21882;-86
2021/07/17 08:06:10;;;;;;;;;;;;;;;26.38;76.84;100090.67;1699330;83;20139;-83
2021/07/17 08:08:36;;;;;;;;;;;;;;;26.41;76.50;100084.19;1700933;82;21044;-79
2021/07/17 08:11:02;;;;;;;;;;;;;;;26.58;76.59;100084.55;1696843;83;21167;-80
2021/07/17 08:13:28;;;;;;;;;;;;;;;26.65;76.28;100086.48;1702051;83;20202;-80
2021/07/17 08:15:54;;;;;;;;;;;;;;;26.66;76.29;100082.70;1700181;82;21096;-87
2021/07/17 08:18:20;;;;;;;;;;;;;;;26.73;76.22;100081.94;1699374;83;20344;-84
2021/07/17 08:20:46;;;;;;;;;;;;;;;26.83;76.13;100083.33;1702864;83;20671;-80
2021/07/17 08:23:11;;;;;;;;;;;;;;;26.77;75.63;100089.81;1701267;82;21165;-80
2021/07/17 08:25:37;;;;;;;;;;;;;;;26.98;75.06;100089.31;1694654;82;20230;-81
2021/07/17 08:28:03;;;;;;;;;;;;;;;27.01;74.76;100086.08;1703911;82;21112;-80
2021/07/17 08:30:28;;;;;;;;;;;;;;;27.04;74.41;100094.22;1697328;82;20202;-80
2021/07/17 08:32:54;;;;;;;;;;;;;;;26.97;74.91;100085.52;1698017;82;20539;-82
2021/07/17 08:35:20;;;;;;;;;;;;;;;27.01;75.24;100082.01;1708227;82;20241;-83
2021/07/17 08:37:46;;;;;;;;;;;;;;;27.13;74.86;100093.97;1703433;82;20202;-89
2021/07/17 08:40:12;;;;;;;;;;;;;;;27.01;75.67;100090.14;1702696;82;21058;-80
2021/07/17 08:42:41;;;;;;;;;;;;;;;27.19;74.43;100091.55;1698036;82;20608;-84
2021/07/17 08:45:07;;;;;;;;;;;;;;;27.41;73.69;100098.66;1697387;82;20167;-78
2021/07/17 08:47:38;;;;;;;;;;;;;;;27.46;73.03;100098.66;1699430;82;20191;-82
2021/07/17 08:50:04;;;;;;;;;;;;;;;27.44;73.43;100095.94;1700362;82;20496;-79
2021/07/17 08:52:31;;;;;;;;;;;;;;;27.51;73.27;100093.23;1681822;83;21012;-79
2021/07/17 08:55:02;;;;;;;;;;;;;;;27.47;73.66;100096.23;1703496;83;20218;-80
2021/07/17 08:57:24;;;;;;;;;;;;;;;27.45;73.06;100086.17;1686816;82;20132;-78
2021/07/17 08:59:51;;;;;;;;;;;;;;;27.34;73.99;100085.90;1692042;82;20240;-77
2021/07/17 09:02:16;;;;;;;;;;;;;;;27.37;73.78;100086.16;1692739;82;20256;-77
2021/07/17 09:04:44;;;;;;;;;;;;;;;27.46;74.09;100076.16;1656512;83;21860;-77
2021/07/17 09:07:09;;;;;;;;;;;;;;;27.70;73.54;100081.84;1704579;83;20204;-77
2021/07/17 09:09:36;;;;;;;;;;;;;;;27.82;72.94;100078.30;1701518;83;20132;-78
2021/07/17 09:12:02;;;;;;;;;;;;;;;27.75;72.55;100072.36;1695745;83;20134;-82
2021/07/17 09:14:35;;;;;;;;;;;;;;;27.82;72.50;100075.59;1684232;83;20181;-77
2021/07/17 09:17:01;;;;;;;;;;;;;;;27.92;71.61;100064.73;1703849;83;22009;-77
2021/07/17 09:19:27;;;;;;;;;;;;;;;27.97;71.89;100065.81;1706845;82;20139;-77
2021/07/17 09:21:52;;;;;;;;;;;;;;;27.88;72.03;100064.20;1703115;82;20658;-78
2021/07/17 09:24:18;;;;;;;;;;;;;;;27.94;71.94;100061.19;1691302;84;20542;-78
2021/07/17 09:26:56;;;;;;;;;;;;;;;27.97;71.56;100056.32;1698686;82;20293;-79
2021/07/17 09:29:22;;;;;;;;;;;;;;;27.99;71.13;100055.52;1692578;83;21181;-77
2021/07/17 09:31:53;;;;;;;;;;;;;;;28.10;71.23;100057.92;1703029;83;20469;-78
2021/07/17 09:34:20;;;;;;;;;;;;;;;28.14;70.57;100056.84;1702978;82;20225;-78
2021/07/17 09:37:02;;;;;;;;;;;;;;;28.28;70.58;100063.31;1692557;82;20162;-86
2021/07/17 09:39:34;;;;;;;;;;;;;;;28.28;71.26;100061.15;1700470;83;20461;-78
2021/07/17 09:42:04;;;;;;;;;;;;;;;28.35;70.32;100059.48;1694098;82;22050;-78
2021/07/17 09:44:30;;;;;;;;;;;;;;;28.50;69.93;100060.79;1698205;83;20164;-80
2021/07/17 09:46:55;;;;;;;;;;;;;;;28.55;70.66;100059.40;1699603;83;20174;-91
2021/07/17 09:49:22;;;;;;;;;;;;;;;28.54;69.80;100063.23;1701475;82;20553;-78
2021/07/17 09:51:48;;;;;;;;;;;;;;;28.43;70.05;100060.27;1696400;83;20565;-85
2021/07/17 09:54:13;;;;;;;;;;;;;;;28.42;69.81;100050.52;1702863;83;21222;-78
2021/07/17 09:56:40;;;;;;;;;;;;;;;28.41;69.79;100050.23;1700479;83;20517;-79
2021/07/17 09:59:11;;;;;;;;;;;;;;;28.37;70.39;100056.78;1703217;82;20128;-83
2021/07/17 10:01:41;;;;;;;;;;;;;;;28.39;70.09;100049.70;1694518;82;20165;-80
2021/07/17 10:04:08;;;;;;;;;;;;;;;28.48;69.38;100056.19;1691916;83;20203;-80
2021/07/17 10:06:37;;;;;;;;;;;;;;;28.53;68.93;100053.44;1693569;83;21067;-79
2021/07/17 10:09:05;;;;;;;;;;;;;;;28.57;68.49;100057.23;1703275;82;20171;-79
2021/07/17 10:11:31;;;;;;;;;;;;;;;28.56;68.90;100055.60;1702656;82;20553;-78
2021/07/17 10:13:56;;;;;;;;;;;;;;;28.68;68.69;100047.69;1697893;82;20159;-89
2021/07/17 10:16:24;;;;;;;;;;;;;;;28.59;67.52;100051.00;1694518;83;20214;-80
2021/07/17 10:18:50;;;;;;;;;;;;;;;28.70;67.26;100044.14;1691173;83;21106;-77
2021/07/17 10:21:15;;;;;;;;;;;;;;;28.84;66.76;100039.73;1696411;83;20130;-79
2021/07/17 10:23:42;;;;;;;;;;;;;;;28.89;66.68;100045.13;1695839;83;32752;-84
2021/07/17 10:26:08;;;;;;;;;;;;;;;28.98;66.44;100040.72;1693747;83;20166;-79
2021/07/17 10:28:34;;;;;;;;;;;;;;;29.08;66.08;100039.03;1700002;83;20226;-78
2021/07/17 10:30:59;;;;;;;;;;;;;;;28.96;66.06;100032.05;1692455;82;21103;-79
2021/07/17 10:33:25;;;;;;;;;;;;;;;29.19;65.31;100035.13;1691018;81;20227;-81
2021/07/17 10:35:52;;;;;;;;;;;;;;;29.22;62.76;100035.96;1706936;83;20147;-79
2021/07/17 10:38:18;;;;;;;;;;;;;;;29.35;63.51;100023.08;1699998;83;20099;-79
2021/07/17 10:40:44;;;;;;;;;;;;;;;29.44;64.09;100022.45;1690551;82;20156;-85
2021/07/17 10:43:10;;;;;;;;;;;;;;;29.47;63.66;100021.89;1704363;82;21166;-86
2021/07/17 10:45:44;;;;;;;;;;;;;;;29.38;63.55;100020.88;1704297;82;20510;-82
2021/07/17 10:48:28;;;;;;;;;;;;;;;29.40;62.66;100020.03;1691522;83;20448;-78
2021/07/17 10:50:55;;;;;;;;;;;;;;;29.56;62.73;100020.17;1684583;83;20133;-79
2021/07/17 10:53:41;;;;;;;;;;;;;;;29.39;59.42;100019.80;1704079;82;20188;-82
2021/07/17 10:56:30;;;;;;;;;;;;;;;29.35;60.71;100020.36;1693767;83;21112;-85
2021/07/17 10:58:59;;;;;;;;;;;;;;;29.44;60.64;100025.18;1683566;83;20754;-82
2021/07/17 11:01:26;;;;;;;;;;;;;;;29.44;60.90;100031.98;1688457;83;20159;-79
2021/07/17 11:03:53;;;;;;;;;;;;;;;29.48;61.34;100034.41;1697756;82;20253;-77
2021/07/17 11:06:29;;;;;;;;;;;;;;;29.39;61.81;100029.31;1699243;82;20303;-79
2021/07/17 11:08:55;;;;;;;;;;;;;;;29.48;60.78;100032.48;1698044;82;20103;-83
2021/07/17 11:11:31;;;;;;;;;;;;;;;29.50;60.71;100030.84;1684437;82;20155;-78
2021/07/17 11:14:09;;;;;;;;;;;;;;;29.61;60.39;100027.48;1705639;83;20513;-81
2021/07/17 11:16:41;;;;;;;;;;;;;;;29.69;59.52;100013.23;1689323;83;20266;-89
2021/07/17 11:19:25;;;;;;;;;;;;;;;29.63;59.08;100012.50;1690396;83;20210;-83
2021/07/17 11:21:53;;;;;;;;;;;;;;;29.71;58.47;100011.06;1689165;83;21116;-78
2021/07/17 11:24:20;;;;;;;;;;;;;;;29.71;58.56;100000.98;1703344;82;20154;-83
2021/07/17 11:26:47;;;;;;;;;;;;;;;29.78;58.35;100001.19;1676574;83;21064;-90
2021/07/17 11:29:13;;;;;;;;;;;;;;;29.72;60.38;99994.45;1673138;83;20188;-78
2021/07/17 11:31:47;;;;;;;;;;;;;;;29.77;58.17;99996.30;1692822;83;20396;-78
2021/07/17 11:34:21;;;;;;;;;;;;;;;29.83;58.50;99992.45;1696715;83;21943;-78
2021/07/17 11:36:54;;;;;;;;;;;;;;;29.80;61.37;99993.56;1695060;83;20505;-85
2021/07/17 11:39:21;;;;;;;;;;;;;;;29.84;62.42;99985.09;1704667;82;20172;-78
2021/07/17 11:41:47;;;;;;;;;;;;;;;29.84;63.71;99980.45;1692608;82;20183;-82
2021/07/17 11:44:14;;;;;;;;;;;;;;;29.89;63.38;99979.58;1700205;83;20171;-82
2021/07/17 11:46:53;;;;;;;;;;;;;;;29.91;63.51;99982.84;1700489;82;21108;-76
2021/07/17 11:49:19;;;;;;;;;;;;;;;29.91;63.80;99985.57;1706261;83;21244;-78
2021/07/17 11:51:54;;;;;;;;;;;;;;;29.84;64.37;99986.45;1698204;82;20201;-91
2021/07/17 11:54:29;;;;;;;;;;;;;;;29.77;64.91;99977.25;1689282;82;20157;-76
2021/07/17 11:57:08;;;;;;;;;;;;;;;29.67;64.97;99975.42;1701081;83;20460;-79
2021/07/17 11:59:34;;;;;;;;;;;;;;;29.73;65.15;99967.47;1696936;83;21056;-78
2021/07/17 12:02:08;;;;;;;;;;;;;;;29.81;64.97;99966.05;1693577;83;20173;-79
2021/07/17 12:04:34;;;;;;;;;;;;;;;29.81;64.57;99963.89;1687486;83;20179;-80
2021/07/17 12:07:04;;;;;;;;;;;;;;;29.86;62.87;99967.91;1695174;82;20607;-77
2021/07/17 12:09:36;;;;;;;;;;;;;;;29.93;62.74;99963.50;1698052;83;20244;-84
2021/07/17 12:12:23;;;;;;;;;;;;;;;29.84;63.55;99957.88;1691818;83;21124;-88
2021/07/17 12:14:58;;;;;;;;;;;;;;;30.01;62.63;99957.41;1700389;82;20178;-81
2021/07/17 12:17:24;;;;;;;;;;;;;;;30.11;61.46;99956.45;1699184;83;20657;-79
2021/07/17 12:20:07;;;;;;;;;;;;;;;30.21;61.13;99950.89;1692948;83;20874;-79
2021/07/17 12:22:33;;;;;;;;;;;;;;;30.36;61.30;99947.97;1693703;82;20150;-78
2021/07/17 12:25:09;;;;;;;;;;;;;;;30.52;60.13;99947.22;1701215;83;21070;-79
2021/07/17 12:28:07;;;;;;;;;;;;;;;30.60;60.30;99944.38;1687318;83;20399;-79
2021/07/17 12:30:38;;;;;;;;;;;;;;;30.56;59.70;99943.34;1701006;82;20444;-80
2021/07/17 12:33:15;;;;;;;;;;;;;;;30.93;58.71;99940.32;1691032;83;20313;-77
2021/07/17 12:35:44;;;;;;;;;;;;;;;31.11;58.61;99935.41;1697533;82;20186;-78
2021/07/17 12:38:23;;;;;;;;;;;;;;;31.32;57.89;99933.15;1696391;82;20176;-79
2021/07/17 12:40:58;;;;;;;;;;;;;;;31.53;58.25;99927.87;1699009;83;20175;-81